createdAt,value
2019-03-05T00:00:46.578Z,20.50
2019-03-05T00:03:15.303Z,15.03
2019-03-05T00:05:43.977Z,14.78
2019-03-05T00:08:12.608Z,17.12
2019-03-05T00:10:41.097Z,17.90
2019-03-05T00:13:09.835Z,16.32
2019-03-05T00:15:38.536Z,18.62
2019-03-05T00:18:07.171Z,14.28
2019-03-05T00:20:35.943Z,12.00
2019-03-05T00:23:04.567Z,13.20
2019-03-05T00:25:37.628Z,19.52
2019-03-05T00:28:29.306Z,14.03
2019-03-05T00:31:03.522Z,19.37
2019-03-05T00:33:56.328Z,12.82
2019-03-05T00:36:30.443Z,14.13
2019-03-05T00:39:14.119Z,16.33
2019-03-05T00:41:45.655Z,18.35
2019-03-05T00:44:23.094Z,16.17
2019-03-05T00:46:57.643Z,18.90
2019-03-05T00:49:53.198Z,16.32
2019-03-05T00:52:45.735Z,16.73
2019-03-05T00:55:26.267Z,17.67
2019-03-05T00:58:10.048Z,15.95
2019-03-05T01:00:44.534Z,14.33
2019-03-05T01:03:25.092Z,16.23
2019-03-05T01:05:56.732Z,15.95
2019-03-05T01:08:25.439Z,16.45
2019-03-05T01:10:54.117Z,16.27
2019-03-05T01:13:22.890Z,22.27
2019-03-05T01:15:51.683Z,14.98
2019-03-05T01:18:20.324Z,14.23
2019-03-05T01:20:48.991Z,18.80
2019-03-05T01:23:17.554Z,21.52
2019-03-05T01:25:46.410Z,21.10
2019-03-05T01:28:15.264Z,19.92
2019-03-05T01:30:45.738Z,12.07
2019-03-05T01:33:16.408Z,14.33
2019-03-05T01:35:46.714Z,15.55
2019-03-05T01:38:15.343Z,14.63
2019-03-05T01:40:43.979Z,23.38
2019-03-05T01:43:12.589Z,20.72
2019-03-05T01:45:41.161Z,23.20
2019-03-05T01:48:15.578Z,20.27
2019-03-05T01:50:44.422Z,11.70
2019-03-05T01:53:12.928Z,15.08
2019-03-05T01:55:41.410Z,17.25
2019-03-05T01:58:10.072Z,14.03
2019-03-05T02:00:38.988Z,13.72
2019-03-05T02:03:07.545Z,12.00
2019-03-05T02:05:36.216Z,14.68
2019-03-05T02:08:04.843Z,15.45
2019-03-05T02:10:33.477Z,15.53
2019-03-05T02:13:02.069Z,10.85
2019-03-05T02:15:30.705Z,12.63
2019-03-05T02:17:59.192Z,11.75
2019-03-05T02:20:27.858Z,12.18
2019-03-05T02:23:02.381Z,11.15
2019-03-05T02:25:33.963Z,13.05
2019-03-05T02:28:20.267Z,17.02
2019-03-05T02:30:54.975Z,16.42
2019-03-05T02:33:50.783Z,13.70
2019-03-05T02:36:37.727Z,11.30
2019-03-05T02:39:38.252Z,16.23
2019-03-05T02:42:38.703Z,13.13
2019-03-05T02:45:25.215Z,14.18
2019-03-05T02:48:14.744Z,13.35
2019-03-05T02:51:10.656Z,14.83
2019-03-05T02:54:17.546Z,12.13
2019-03-05T02:57:08.578Z,17.70
2019-03-05T02:59:37.629Z,12.53
2019-03-05T03:02:08.919Z,16.37
2019-03-05T03:04:39.185Z,21.45
2019-03-05T03:07:07.767Z,13.70
2019-03-05T03:09:39.310Z,17.37
2019-03-05T03:12:07.942Z,22.67
2019-03-05T03:14:36.608Z,17.53
2019-03-05T03:17:05.102Z,22.15
2019-03-05T03:19:33.660Z,15.10
2019-03-05T03:22:02.513Z,17.70
2019-03-05T03:24:31.146Z,18.10
2019-03-05T03:26:59.706Z,18.80
2019-03-05T03:29:28.323Z,22.70
2019-03-05T03:31:56.955Z,25.77
2019-03-05T03:34:25.591Z,20.05
2019-03-05T03:36:54.313Z,18.42
2019-03-05T03:39:22.944Z,16.03
2019-03-05T03:41:51.501Z,15.25
2019-03-05T03:44:20.177Z,11.93
2019-03-05T03:46:48.801Z,13.83
2019-03-05T03:49:17.445Z,16.90
2019-03-05T03:51:45.976Z,11.23
2019-03-05T03:54:14.478Z,14.90
2019-03-05T03:56:43.095Z,20.77
2019-03-05T03:59:11.768Z,16.27
2019-03-05T04:01:40.310Z,20.77
2019-03-05T04:04:08.889Z,16.70
2019-03-05T04:06:37.650Z,18.07
2019-03-05T04:09:09.268Z,20.00
2019-03-05T04:11:37.927Z,17.87
2019-03-05T04:14:06.535Z,25.43
2019-03-05T04:16:35.273Z,26.57
2019-03-05T04:19:05.470Z,25.40
2019-03-05T04:21:34.145Z,20.00
2019-03-05T04:24:02.774Z,20.62
2019-03-05T04:26:31.270Z,20.37
2019-03-05T04:28:59.797Z,16.23
2019-03-05T04:31:28.358Z,35.20
2019-03-05T04:33:56.998Z,27.63
2019-03-05T04:36:25.622Z,39.85
2019-03-05T04:38:54.284Z,49.80
2019-03-05T04:41:22.909Z,31.73
2019-03-05T04:43:51.785Z,33.23
2019-03-05T04:46:33.583Z,26.40
2019-03-05T04:49:03.837Z,38.43
2019-03-05T04:51:34.120Z,37.83
2019-03-05T04:54:02.814Z,30.63
2019-03-05T04:56:31.389Z,53.50
2019-03-05T04:59:00.024Z,62.57
2019-03-05T05:01:28.513Z,46.30
2019-03-05T05:03:57.049Z,45.33
2019-03-05T05:06:25.676Z,33.63
2019-03-05T05:08:55.339Z,33.70
2019-03-05T05:11:23.944Z,34.10
2019-03-05T05:13:52.453Z,30.93
2019-03-05T05:16:21.090Z,29.95
2019-03-05T05:18:49.974Z,43.80
2019-03-05T05:21:18.541Z,45.65
2019-03-05T05:23:47.103Z,51.18
2019-03-05T05:26:17.701Z,57.20
2019-03-05T05:28:46.141Z,37.15
2019-03-05T05:31:14.716Z,46.77
2019-03-05T05:33:43.321Z,47.62
2019-03-05T05:36:11.955Z,59.23
2019-03-05T05:38:40.533Z,47.00
2019-03-05T05:41:09.214Z,38.17
2019-03-05T05:43:37.852Z,34.85
2019-03-05T05:46:06.342Z,25.72
2019-03-05T05:48:34.897Z,24.47
2019-03-05T05:51:03.543Z,39.38
2019-03-05T05:53:32.166Z,40.45
2019-03-05T05:56:00.699Z,45.35
2019-03-05T05:58:29.315Z,27.42
2019-03-05T06:00:59.590Z,71.45
2019-03-05T06:03:28.272Z,63.90
2019-03-05T06:05:56.784Z,35.05
2019-03-05T06:08:25.289Z,45.67
2019-03-05T06:10:53.957Z,54.48
2019-03-05T06:13:22.603Z,56.75
2019-03-05T06:15:51.157Z,41.85
2019-03-05T06:18:19.868Z,23.73
2019-03-05T06:20:48.502Z,36.35
2019-03-05T06:23:17.014Z,24.80
2019-03-05T06:25:45.647Z,19.42
2019-03-05T06:28:14.283Z,15.25
2019-03-05T06:30:43.870Z,21.75
2019-03-05T06:33:12.438Z,17.48
2019-03-05T06:35:41.074Z,33.53
2019-03-05T06:38:09.759Z,25.37
2019-03-05T06:40:38.327Z,27.77
2019-03-05T06:43:06.898Z,21.90
2019-03-05T06:45:35.765Z,21.30
2019-03-05T06:48:04.508Z,35.25
2019-03-05T06:50:33.010Z,26.80
2019-03-05T06:53:01.678Z,20.17
2019-03-05T06:55:30.405Z,40.55
2019-03-05T06:57:59.048Z,35.35
2019-03-05T07:00:34.357Z,22.20
2019-03-05T07:03:03.915Z,19.40
2019-03-05T07:06:10.867Z,26.20
2019-03-05T07:08:45.431Z,24.00
2019-03-05T07:11:38.285Z,40.70
2019-03-05T07:14:12.619Z,21.77
2019-03-05T07:16:53.063Z,30.50
2019-03-05T07:19:23.822Z,16.60
2019-03-05T07:22:22.532Z,26.40
2019-03-05T07:24:51.573Z,22.62
2019-03-05T07:27:23.366Z,22.35
2019-03-05T07:29:52.456Z,20.17
2019-03-05T07:32:21.025Z,29.30
2019-03-05T07:34:51.168Z,34.67
2019-03-05T07:37:19.855Z,33.30
2019-03-05T07:39:48.424Z,22.62
2019-03-05T07:42:17.125Z,17.12
2019-03-05T07:44:51.594Z,22.75
2019-03-05T07:47:20.161Z,33.42
2019-03-05T07:49:48.664Z,32.13
2019-03-05T07:52:17.350Z,24.47
2019-03-05T07:54:45.994Z,26.50
2019-03-05T07:57:14.567Z,23.18
2019-03-05T07:59:43.121Z,29.90
2019-03-05T08:02:11.802Z,23.87
2019-03-05T08:04:40.455Z,27.93
2019-03-05T08:07:09.306Z,36.38
2019-03-05T08:09:38.666Z,34.20
2019-03-05T08:12:16.226Z,28.57
2019-03-05T08:14:56.643Z,27.52
2019-03-05T08:17:26.081Z,22.37
2019-03-05T08:19:54.716Z,25.80
2019-03-05T08:22:23.558Z,23.70
2019-03-05T08:24:52.115Z,32.48
2019-03-05T08:27:23.500Z,26.20
2019-03-05T08:29:52.141Z,22.77
2019-03-05T08:32:20.833Z,27.80
2019-03-05T08:34:49.343Z,16.17
2019-03-05T08:37:17.978Z,13.90
2019-03-05T08:39:46.611Z,10.53
2019-03-05T08:42:15.181Z,15.55
2019-03-05T08:44:50.342Z,15.55
2019-03-05T08:47:14.144Z,10.32
2019-03-05T08:49:42.780Z,10.40
2019-03-05T08:52:11.494Z,16.27
2019-03-05T08:54:40.119Z,27.48
2019-03-05T08:57:08.747Z,22.35
2019-03-05T08:59:37.349Z,16.07
2019-03-05T09:02:05.985Z,20.45
2019-03-05T09:04:34.625Z,24.98
2019-03-05T09:07:03.231Z,16.35
2019-03-05T09:09:31.731Z,19.05
2019-03-05T09:12:00.358Z,12.53
2019-03-05T09:14:29.035Z,9.33
2019-03-05T09:16:57.600Z,7.25
2019-03-05T09:19:26.095Z,12.00
2019-03-05T09:21:54.761Z,8.75
2019-03-05T09:24:23.396Z,8.68
2019-03-05T09:26:51.951Z,5.08
2019-03-05T09:29:20.547Z,6.65
2019-03-05T09:31:49.190Z,19.48
2019-03-05T09:34:17.821Z,11.33
2019-03-05T09:36:51.078Z,11.35
2019-03-05T09:39:16.676Z,18.23
2019-03-05T09:41:45.317Z,4.85
2019-03-05T09:44:13.975Z,8.68
2019-03-05T09:46:42.537Z,8.38
2019-03-05T09:49:11.108Z,9.33
2019-03-05T09:51:39.735Z,7.50
2019-03-05T09:54:08.694Z,4.25
2019-03-05T09:56:37.287Z,11.35
2019-03-05T09:59:06.150Z,13.35
2019-03-05T10:01:35.127Z,11.97
2019-03-05T10:04:03.859Z,9.28
2019-03-05T10:06:32.495Z,13.60
2019-03-05T10:09:01.114Z,16.80
2019-03-05T10:11:29.742Z,12.80
2019-03-05T10:13:58.382Z,10.68
2019-03-05T10:16:26.921Z,7.65
2019-03-05T10:18:55.616Z,15.70
2019-03-05T10:21:24.114Z,10.63
2019-03-05T10:23:52.922Z,18.27
2019-03-05T10:26:28.217Z,8.25
2019-03-05T10:28:56.839Z,21.95
2019-03-05T10:31:25.393Z,17.45
2019-03-05T10:33:54.020Z,48.42
2019-03-05T10:36:22.768Z,5.95
2019-03-05T10:38:57.381Z,6.20
2019-03-05T10:41:22.003Z,9.88
2019-03-05T10:43:50.665Z,19.45
2019-03-05T10:46:19.540Z,10.53
2019-03-05T10:48:48.170Z,11.03
2019-03-05T10:51:16.929Z,10.00
2019-03-05T10:53:45.461Z,4.92
2019-03-05T10:56:14.099Z,11.93
2019-03-05T10:58:42.652Z,9.80
2019-03-05T11:01:11.798Z,9.15
2019-03-05T11:03:40.419Z,4.70
2019-03-05T11:06:09.153Z,5.62
2019-03-05T11:08:37.834Z,2.80
2019-03-05T11:11:13.368Z,2.92
2019-03-05T11:13:37.315Z,2.05
2019-03-05T11:16:06.573Z,5.55
2019-03-05T11:18:36.207Z,3.65
2019-03-05T11:21:06.337Z,4.67
2019-03-05T11:23:35.018Z,4.78
2019-03-05T11:26:03.853Z,3.87
2019-03-05T11:28:32.492Z,4.40
2019-03-05T11:31:01.157Z,5.33
2019-03-05T11:33:29.795Z,2.77
2019-03-05T11:35:58.361Z,6.20
2019-03-05T11:38:27.034Z,5.30
2019-03-05T11:40:55.597Z,4.65
2019-03-05T11:43:24.161Z,5.80
2019-03-05T11:45:52.829Z,5.20
2019-03-05T11:48:24.249Z,8.50
2019-03-05T11:50:52.837Z,1.75
2019-03-05T11:53:21.497Z,2.95
2019-03-05T11:55:50.131Z,5.62
2019-03-05T11:58:18.764Z,3.90
2019-03-05T12:00:54.961Z,9.30
2019-03-05T12:03:23.538Z,3.47
2019-03-05T12:05:52.158Z,4.12
2019-03-05T12:08:21.051Z,4.20
2019-03-05T12:10:49.612Z,5.20
2019-03-05T12:13:18.445Z,2.22
2019-03-05T12:15:47.226Z,5.47
2019-03-05T12:18:15.856Z,2.20
2019-03-05T12:20:44.427Z,5.05
2019-03-05T12:23:13.147Z,1.50
2019-03-05T12:25:41.911Z,6.05
2019-03-05T12:28:11.545Z,5.40
2019-03-05T12:30:40.487Z,1.00
2019-03-05T12:33:08.969Z,8.45
2019-03-05T12:35:37.744Z,6.05
2019-03-05T12:38:06.465Z,18.40
2019-03-05T12:40:35.030Z,3.35
2019-03-05T12:43:03.707Z,0.85
2019-03-05T12:45:32.340Z,3.33
2019-03-05T12:48:00.971Z,3.40
2019-03-05T12:50:31.375Z,6.17
2019-03-05T12:53:00.015Z,9.53
2019-03-05T12:55:28.685Z,4.65
2019-03-05T12:57:57.347Z,3.30
2019-03-05T13:00:28.689Z,2.15
2019-03-05T13:02:57.674Z,5.78
2019-03-05T13:05:26.314Z,20.32
2019-03-05T13:07:56.671Z,13.62
2019-03-05T13:10:26.465Z,17.42
2019-03-05T13:12:55.089Z,4.47
2019-03-05T13:15:31.683Z,7.78
2019-03-05T13:18:02.203Z,10.10
2019-03-05T13:20:30.842Z,3.15
2019-03-05T13:22:59.719Z,6.35
2019-03-05T13:25:29.719Z,9.65
2019-03-05T13:28:02.275Z,13.65
2019-03-05T13:30:32.952Z,5.95
2019-03-05T13:33:01.589Z,14.43
2019-03-05T13:35:32.035Z,14.05
2019-03-05T13:38:10.563Z,3.85
2019-03-05T13:40:40.683Z,11.68
2019-03-05T13:43:09.545Z,3.33
2019-03-05T13:45:38.273Z,4.37
2019-03-05T13:48:27.991Z,4.62
2019-03-05T13:51:14.774Z,7.85
2019-03-05T13:53:59.990Z,3.65
2019-03-05T13:56:37.740Z,11.43
2019-03-05T13:59:33.376Z,23.15
2019-03-05T14:02:03.040Z,6.83
2019-03-05T14:04:49.750Z,5.40
2019-03-05T14:07:42.699Z,7.28
2019-03-05T14:10:11.417Z,5.17
2019-03-05T14:12:40.008Z,8.80
2019-03-05T14:15:11.360Z,15.85
2019-03-05T14:17:41.377Z,12.88
2019-03-05T14:20:15.791Z,7.85
2019-03-05T14:22:44.405Z,14.73
2019-03-05T14:25:15.351Z,13.55
2019-03-05T14:27:44.114Z,16.85
2019-03-05T14:30:15.747Z,11.05
2019-03-05T14:32:44.573Z,25.25
2019-03-05T14:35:14.625Z,17.67
2019-03-05T14:37:43.573Z,13.95
2019-03-05T14:40:24.047Z,7.75
2019-03-05T14:42:45.548Z,22.22
2019-03-05T14:45:19.734Z,14.70
2019-03-05T14:47:48.389Z,18.75
2019-03-05T14:50:17.039Z,32.95
2019-03-05T14:52:45.704Z,12.15
2019-03-05T14:55:14.783Z,11.05
2019-03-05T14:57:43.424Z,11.45
2019-03-05T15:00:18.016Z,15.18
2019-03-05T15:02:46.767Z,4.30
2019-03-05T15:05:15.390Z,12.03
2019-03-05T15:07:44.123Z,13.78
2019-03-05T15:10:12.782Z,12.93
2019-03-05T15:12:41.341Z,6.37
2019-03-05T15:15:21.651Z,18.40
2019-03-05T15:17:50.797Z,13.28
2019-03-05T15:20:19.446Z,6.95
2019-03-05T15:22:48.039Z,9.30
2019-03-05T15:25:17.091Z,13.10
2019-03-05T15:27:45.723Z,9.70
2019-03-05T15:30:24.935Z,13.58
2019-03-05T15:32:53.507Z,27.05
2019-03-05T15:35:22.028Z,19.02
2019-03-05T15:37:50.677Z,17.82
2019-03-05T15:40:19.956Z,11.70
2019-03-05T15:42:48.630Z,19.23
2019-03-05T15:45:18.964Z,16.15
2019-03-05T15:47:47.708Z,11.53
2019-03-05T15:50:21.522Z,19.48
2019-03-05T15:52:50.184Z,25.25
2019-03-05T15:55:18.786Z,22.42
2019-03-05T15:57:47.396Z,21.77
2019-03-05T16:00:31.205Z,24.23
2019-03-05T16:03:00.881Z,28.32
2019-03-05T16:05:29.846Z,29.75
2019-03-05T16:08:00.867Z,28.73
2019-03-05T16:10:28.797Z,21.23
2019-03-05T16:12:57.436Z,12.60
2019-03-05T16:15:26.082Z,10.85
2019-03-05T16:17:54.742Z,8.58
2019-03-05T16:22:55.135Z,8.20
2019-03-05T16:25:24.515Z,11.85
2019-03-05T16:27:53.146Z,18.10
2019-03-05T16:30:47.221Z,10.08
2019-03-05T16:33:20.457Z,14.93
2019-03-05T16:36:06.923Z,9.33
2019-03-05T16:38:55.173Z,11.57
2019-03-05T16:41:34.170Z,8.18
2019-03-05T16:44:16.603Z,9.08
2019-03-05T16:46:55.634Z,10.70
2019-03-05T16:48:18.893Z,10.03
2019-03-05T16:49:25.904Z,9.45
2019-03-05T16:52:14.455Z,7.65
2019-03-05T16:54:47.484Z,10.38
2019-03-05T16:57:20.579Z,7.33
2019-03-05T16:59:50.863Z,11.12
2019-03-05T17:02:21.157Z,6.72
2019-03-05T17:04:51.480Z,11.78
2019-03-05T17:07:21.752Z,12.73
2019-03-05T17:09:51.963Z,14.25
2019-03-05T17:12:20.601Z,7.37
2019-03-05T17:14:49.243Z,17.35
2019-03-05T17:17:17.903Z,9.28
2019-03-05T17:19:46.749Z,12.35
2019-03-05T17:22:15.387Z,10.60
2019-03-05T17:24:44.053Z,8.43
2019-03-05T17:27:12.697Z,9.25
2019-03-05T17:29:41.181Z,10.18
2019-03-05T17:32:10.097Z,12.93
2019-03-05T17:34:38.738Z,6.95
2019-03-05T17:37:07.506Z,7.33
2019-03-05T17:39:35.997Z,9.93
2019-03-05T17:42:04.728Z,11.88
2019-03-05T17:44:34.862Z,5.65
2019-03-05T17:47:03.732Z,7.00
2019-03-05T17:49:32.293Z,8.98
2019-03-05T17:52:00.913Z,8.20
2019-03-05T17:54:29.546Z,7.67
2019-03-05T17:56:58.173Z,8.60
2019-03-05T17:59:26.708Z,6.85
2019-03-05T18:01:55.205Z,12.82
2019-03-05T18:04:23.845Z,15.45
2019-03-05T18:06:52.527Z,10.15
2019-03-05T18:09:21.165Z,7.70
2019-03-05T18:11:49.736Z,10.63
2019-03-05T18:14:18.402Z,13.15
2019-03-05T18:16:47.033Z,13.43
2019-03-05T18:19:15.536Z,11.15
2019-03-05T18:21:44.206Z,10.15
2019-03-05T18:24:12.696Z,18.07
2019-03-05T18:26:41.345Z,16.52
2019-03-05T18:29:10.038Z,17.30
2019-03-05T18:31:38.677Z,21.05
2019-03-05T18:34:07.325Z,20.40
2019-03-05T18:36:35.998Z,25.17
2019-03-05T18:39:05.410Z,27.00
2019-03-05T18:41:34.049Z,30.77
2019-03-05T18:44:02.943Z,35.15
2019-03-05T18:46:31.780Z,37.00
2019-03-05T18:49:03.157Z,31.57
2019-03-05T18:51:31.829Z,35.45
2019-03-05T18:54:00.385Z,34.80
2019-03-05T18:56:28.957Z,29.63
2019-03-05T18:58:57.638Z,24.02
2019-03-05T19:01:26.136Z,23.32
2019-03-05T19:03:54.777Z,13.35
2019-03-05T19:06:23.662Z,22.67
2019-03-05T19:08:52.227Z,12.37
2019-03-05T19:11:20.720Z,14.55
2019-03-05T19:13:49.489Z,12.30
2019-03-05T19:16:18.122Z,9.45
2019-03-05T19:18:46.613Z,13.15
2019-03-05T19:21:15.228Z,13.93
2019-03-05T19:23:43.862Z,16.52
2019-03-05T19:26:12.610Z,24.55
2019-03-05T19:28:41.180Z,20.72
2019-03-05T19:31:09.757Z,22.37
2019-03-05T19:33:38.441Z,25.77
2019-03-05T19:36:07.090Z,22.87
2019-03-05T19:38:35.600Z,19.80
2019-03-05T19:41:04.466Z,19.67
2019-03-05T19:43:33.051Z,24.18
2019-03-05T19:46:01.555Z,23.85
2019-03-05T19:48:30.315Z,16.23
2019-03-05T19:50:58.948Z,17.20
2019-03-05T19:53:30.481Z,20.45
2019-03-05T19:55:59.091Z,18.45
2019-03-05T19:58:27.722Z,14.70
2019-03-05T20:01:10.369Z,24.85
2019-03-05T20:03:39.001Z,13.50
2019-03-05T20:06:07.634Z,21.50
2019-03-05T20:08:40.085Z,20.48
2019-03-05T20:11:07.101Z,19.62
2019-03-05T20:13:35.626Z,20.68
2019-03-05T20:16:05.303Z,16.77
2019-03-05T20:18:33.937Z,14.35
2019-03-05T20:21:02.568Z,14.33
2019-03-05T20:23:31.243Z,18.10
2019-03-05T20:26:00.113Z,20.23
2019-03-05T20:28:28.654Z,17.20
2019-03-05T20:30:57.191Z,17.12
2019-03-05T20:33:25.816Z,16.77
2019-03-05T20:35:54.451Z,16.62
2019-03-05T20:38:23.049Z,13.38
2019-03-05T20:40:51.613Z,17.10
2019-03-05T20:43:20.249Z,19.67
2019-03-05T20:45:57.655Z,18.67
2019-03-05T20:48:26.219Z,19.98
2019-03-05T20:50:54.719Z,20.40
2019-03-05T20:53:23.446Z,16.32
2019-03-05T20:55:52.102Z,19.48
2019-03-05T20:58:20.593Z,11.00
2019-03-05T21:00:49.269Z,8.75
2019-03-05T21:03:17.834Z,5.62
2019-03-05T21:05:47.966Z,4.08
2019-03-05T21:08:16.639Z,3.55
2019-03-05T21:10:45.280Z,5.95
2019-03-05T21:13:16.374Z,4.50
2019-03-05T21:15:44.970Z,8.43
2019-03-05T21:18:19.580Z,10.20
2019-03-05T21:20:48.302Z,8.00
2019-03-05T21:23:17.279Z,15.50
2019-03-05T21:25:45.959Z,11.18
2019-03-05T21:28:14.582Z,9.93
2019-03-05T21:30:43.245Z,13.30
2019-03-05T21:33:11.868Z,12.13
2019-03-05T21:35:40.607Z,10.05
2019-03-05T21:38:09.274Z,5.90
2019-03-05T21:40:37.834Z,8.55
2019-03-05T21:43:06.458Z,7.28
2019-03-05T21:45:40.835Z,7.12
2019-03-05T21:48:09.465Z,11.38
2019-03-05T21:50:38.027Z,4.17
2019-03-05T21:53:06.917Z,11.30
2019-03-05T21:55:35.553Z,10.03
2019-03-05T21:58:04.377Z,12.80
2019-03-05T22:00:34.246Z,4.70
2019-03-05T22:03:03.277Z,4.12
2019-03-05T22:05:31.967Z,12.25
2019-03-05T22:08:00.493Z,8.38
2019-03-05T22:10:29.053Z,11.53
2019-03-05T22:12:57.685Z,10.55
2019-03-05T22:15:30.928Z,10.28
2019-03-05T22:17:59.667Z,10.75
2019-03-05T22:20:28.461Z,5.12
2019-03-05T22:22:57.514Z,3.62
2019-03-05T22:25:26.236Z,2.77
2019-03-05T22:27:54.861Z,2.15
2019-03-05T22:30:26.070Z,5.95
2019-03-05T22:32:54.694Z,4.87
2019-03-05T22:35:23.436Z,4.55
2019-03-05T22:38:00.880Z,6.58
2019-03-05T22:40:29.612Z,5.67
2019-03-05T22:42:58.160Z,7.05
2019-03-05T22:45:31.286Z,6.97
2019-03-05T22:47:59.912Z,7.17
2019-03-05T22:50:28.528Z,5.35
2019-03-05T22:52:57.129Z,5.90
2019-03-05T22:55:25.686Z,6.47
2019-03-05T22:57:54.406Z,7.97
2019-03-05T23:00:55.023Z,6.30
2019-03-05T23:03:26.154Z,4.08
2019-03-05T23:05:54.774Z,2.42
2019-03-05T23:08:23.502Z,3.42
2019-03-05T23:10:52.439Z,1.62
2019-03-05T23:13:21.099Z,1.30
2019-03-05T23:15:50.185Z,2.17
2019-03-05T23:18:19.006Z,0.80
2019-03-05T23:20:47.749Z,1.47
2019-03-05T23:23:16.240Z,0.55
2019-03-05T23:25:44.783Z,0.82
2019-03-05T23:28:13.551Z,1.05
2019-03-05T23:30:42.178Z,0.60
2019-03-05T23:33:10.845Z,1.02
2019-03-05T23:35:39.442Z,1.15
2019-03-05T23:38:08.069Z,0.95
2019-03-05T23:40:36.560Z,1.17
2019-03-05T23:43:05.471Z,2.25
2019-03-05T23:45:34.595Z,1.85
2019-03-05T23:48:03.087Z,1.15
2019-03-05T23:50:31.621Z,1.30
2019-03-05T23:53:00.254Z,1.92
2019-03-05T23:55:29.151Z,1.65
2019-03-05T23:57:57.720Z,2.02
